createdAt,value
2019-02-27T05:03:56.268Z,0
2019-02-27T05:07:55.836Z,0
2019-02-27T05:11:23.736Z,0
2019-02-27T05:14:52.607Z,0
2019-02-27T05:18:21.512Z,0
2019-02-27T05:21:52.433Z,0
2019-02-27T05:25:19.311Z,0
2019-02-27T05:28:47.210Z,0
2019-02-27T05:32:15.141Z,0
2019-02-27T05:35:44.040Z,0
2019-02-27T05:39:11.938Z,0
2019-02-27T05:42:42.833Z,0
2019-02-27T05:46:10.750Z,0
2019-02-27T05:49:39.646Z,0
2019-02-27T05:53:10.513Z,0
2019-02-27T05:56:37.481Z,0
2019-02-27T06:00:07.361Z,0
2019-02-27T06:03:35.266Z,0
2019-02-27T06:07:03.195Z,0
2019-02-27T06:10:31.120Z,5.625
2019-02-27T06:13:59.057Z,5.625
2019-02-27T06:17:27.017Z,5.625
2019-02-27T06:20:54.883Z,5.625
2019-02-27T06:24:22.821Z,11.25
2019-02-27T06:27:50.750Z,11.25
2019-02-27T06:31:18.651Z,11.25
2019-02-27T06:34:46.621Z,16.875
2019-02-27T06:38:14.554Z,16.875
2019-02-27T06:41:43.437Z,16.875
2019-02-27T06:45:14.675Z,16.875
2019-02-27T06:48:44.575Z,22.5
2019-02-27T06:52:13.494Z,22.5
2019-02-27T06:55:41.404Z,22.5
2019-02-27T06:59:09.340Z,22.5
2019-02-27T07:02:37.280Z,22.5
2019-02-27T07:06:05.215Z,28.125
2019-02-27T07:09:33.194Z,28.125
2019-02-27T07:13:01.147Z,28.125
2019-02-27T07:16:29.083Z,28.125
2019-02-27T07:19:56.998Z,28.125
2019-02-27T07:23:26.903Z,33.75
2019-02-27T07:26:54.832Z,33.75
2019-02-27T07:30:24.050Z,33.75
2019-02-27T07:33:51.668Z,33.75
2019-02-27T07:37:19.704Z,33.75
2019-02-27T07:40:47.612Z,33.75
2019-02-27T07:44:15.579Z,33.75
2019-02-27T07:47:43.470Z,39.375
2019-02-27T07:51:11.438Z,39.375
2019-02-27T07:54:39.363Z,39.375
2019-02-27T07:58:07.317Z,39.375
2019-02-27T08:01:43.412Z,39.375
2019-02-27T08:05:07.095Z,39.375
2019-02-27T08:08:35.028Z,39.375
2019-02-27T08:12:02.934Z,39.375
2019-02-27T08:15:30.876Z,45
2019-02-27T08:18:58.803Z,45
2019-02-27T08:22:27.697Z,45
2019-02-27T08:25:55.615Z,45
2019-02-27T08:29:23.561Z,45
2019-02-27T08:32:51.466Z,45
2019-02-27T08:36:19.399Z,50.625
2019-02-27T08:39:48.322Z,50.625
2019-02-27T08:43:16.232Z,50.625
2019-02-27T08:46:44.163Z,50.625
2019-02-27T08:50:13.822Z,50.625
2019-02-27T08:53:40.997Z,50.625
2019-02-27T08:57:08.947Z,56.25
2019-02-27T09:00:36.901Z,56.25
2019-02-27T09:04:06.154Z,56.25
2019-02-27T09:07:38.676Z,56.25
2019-02-27T09:11:09.606Z,56.25
2019-02-27T09:14:37.545Z,61.875
2019-02-27T09:18:06.462Z,61.875
2019-02-27T09:21:34.384Z,61.875
2019-02-27T09:25:02.325Z,67.5
2019-02-27T09:28:30.228Z,67.5
2019-02-27T09:31:58.169Z,67.5
2019-02-27T09:35:26.107Z,67.5
2019-02-27T09:38:57.662Z,67.5
2019-02-27T09:42:25.036Z,73.125
2019-02-27T09:45:53.006Z,73.125
2019-02-27T09:49:21.907Z,73.125
2019-02-27T09:52:49.844Z,78.75
2019-02-27T09:56:17.797Z,78.75
2019-02-27T09:59:45.708Z,78.75
2019-02-27T10:03:13.654Z,78.75
2019-02-27T10:06:45.585Z,84.375
2019-02-27T10:10:14.509Z,95.625
2019-02-27T10:13:42.403Z,106.875
2019-02-27T10:17:12.349Z,101.25
2019-02-27T10:20:41.309Z,95.625
2019-02-27T10:24:09.234Z,90
2019-02-27T10:27:37.171Z,90
2019-02-27T10:31:06.106Z,90
2019-02-27T10:34:34.057Z,90
2019-02-27T10:38:02.988Z,95.625
2019-02-27T10:41:30.894Z,95.625
2019-02-27T10:44:59.801Z,95.625
2019-02-27T10:48:28.739Z,95.625
2019-02-27T10:51:56.657Z,101.25
2019-02-27T10:55:26.631Z,106.875
2019-02-27T10:58:53.490Z,112.5
2019-02-27T11:02:23.415Z,118.125
2019-02-27T11:05:55.351Z,168.75
2019-02-27T11:09:22.248Z,320.625
2019-02-27T11:12:51.027Z,157.5
2019-02-27T11:16:22.902Z,168.75
2019-02-27T11:19:50.831Z,973.125
2019-02-27T11:23:18.751Z,1198.125
2019-02-27T11:26:46.669Z,1231.875
2019-02-27T11:30:14.642Z,303.75
2019-02-27T11:33:42.552Z,185.625
2019-02-27T11:37:13.741Z,337.5
2019-02-27T11:40:44.314Z,933.75
2019-02-27T11:44:14.920Z,1068.75
2019-02-27T11:47:47.937Z,241.875
2019-02-27T11:51:17.476Z,360
2019-02-27T11:54:48.110Z,1732.5
2019-02-27T11:58:16.056Z,1749.375
2019-02-27T12:01:44.038Z,1839.375
2019-02-27T12:05:11.938Z,1845
2019-02-27T12:08:39.925Z,1614.375
2019-02-27T12:12:10.416Z,1968.75
2019-02-27T12:15:37.806Z,2008.125
2019-02-27T12:19:09.715Z,2098.125
2019-02-27T12:22:38.643Z,2233.125
2019-02-27T12:26:06.560Z,2205
2019-02-27T12:29:35.038Z,2227.5
2019-02-27T12:33:02.983Z,2278.125
2019-02-27T12:36:30.909Z,2233.125
2019-02-27T12:39:58.833Z,2317.5
2019-02-27T12:43:26.841Z,2345.625
2019-02-27T12:46:54.778Z,2407.5
2019-02-27T12:50:22.712Z,2345.625
2019-02-27T12:53:55.216Z,2491.875
2019-02-27T12:57:22.552Z,2587.5
2019-02-27T13:00:50.523Z,2250
2019-02-27T13:04:21.432Z,2452.5
2019-02-27T13:07:49.408Z,2390.625
2019-02-27T13:11:17.889Z,2626.875
2019-02-27T13:14:45.834Z,2520
2019-02-27T13:18:13.784Z,2385
2019-02-27T13:21:42.708Z,2520
2019-02-27T13:25:10.641Z,388.125
2019-02-27T13:28:38.599Z,219.375
2019-02-27T13:32:06.515Z,202.5
2019-02-27T13:35:34.458Z,196.875
2019-02-27T13:39:03.385Z,196.875
2019-02-27T13:42:31.346Z,174.375
2019-02-27T13:45:59.299Z,180
2019-02-27T13:49:28.245Z,168.75
2019-02-27T13:52:56.168Z,157.5
2019-02-27T13:56:27.508Z,151.875
2019-02-27T13:59:54.998Z,151.875
2019-02-27T14:03:22.956Z,146.25
2019-02-27T14:06:51.863Z,151.875
2019-02-27T14:10:22.786Z,151.875
2019-02-27T14:13:50.691Z,135
2019-02-27T14:17:18.644Z,140.625
2019-02-27T14:20:46.572Z,129.375
2019-02-27T14:24:15.481Z,118.125
2019-02-27T14:27:48.110Z,129.375
2019-02-27T14:31:16.336Z,118.125
2019-02-27T14:34:44.277Z,118.125
2019-02-27T14:38:12.198Z,118.125
2019-02-27T14:41:40.126Z,118.125
2019-02-27T14:45:09.080Z,112.5
2019-02-27T14:48:37.009Z,106.875
2019-02-27T14:52:06.964Z,101.25
2019-02-27T14:55:37.399Z,95.625
2019-02-27T14:59:04.809Z,90
2019-02-27T15:02:32.760Z,84.375
2019-02-27T15:06:01.756Z,84.375
2019-02-27T15:09:29.676Z,78.75
2019-02-27T15:12:59.614Z,78.75
2019-02-27T15:16:27.599Z,73.125
2019-02-27T15:19:55.562Z,61.875
2019-02-27T15:23:28.130Z,61.875
2019-02-27T15:26:55.394Z,56.25
2019-02-27T15:30:23.371Z,50.625
2019-02-27T15:33:51.323Z,50.625
2019-02-27T15:37:20.233Z,45
2019-02-27T15:40:48.163Z,39.375
2019-02-27T15:44:17.104Z,39.375
2019-02-27T15:47:45.047Z,39.375
2019-02-27T15:51:12.993Z,33.75
2019-02-27T15:54:40.935Z,28.125
2019-02-27T15:58:08.821Z,22.5
2019-02-27T16:01:36.746Z,22.5
2019-02-27T16:05:04.713Z,16.875
2019-02-27T16:08:32.614Z,16.875
2019-02-27T16:12:00.537Z,16.875
2019-02-27T16:15:29.647Z,11.25
2019-02-27T16:18:57.532Z,11.25
2019-02-27T16:22:28.438Z,11.25
2019-02-27T16:25:58.347Z,5.625
2019-02-27T16:29:27.252Z,5.625
2019-02-27T16:32:55.208Z,5.625
2019-02-27T16:36:24.134Z,5.625
2019-02-27T16:39:55.019Z,0
2019-02-27T16:43:21.958Z,0
2019-02-27T16:46:49.871Z,0
2019-02-27T16:50:17.826Z,0
2019-02-27T16:53:52.312Z,0
2019-02-27T16:57:23.365Z,0
2019-02-27T17:00:54.126Z,0
2019-02-27T17:04:21.440Z,0
2019-02-27T17:07:49.389Z,0
2019-02-27T17:11:24.357Z,0
2019-02-27T17:14:55.331Z,0
2019-02-27T17:18:28.274Z,0
2019-02-27T17:21:58.733Z,0
2019-02-27T17:25:29.855Z,0
2019-02-27T17:28:57.031Z,0
2019-02-27T17:32:27.415Z,0
2019-02-27T17:35:59.997Z,0
2019-02-27T17:39:30.898Z,0
2019-02-27T17:42:58.847Z,0
2019-02-27T17:46:26.827Z,0
2019-02-27T17:49:57.398Z,0
2019-02-27T17:53:25.660Z,0
2019-02-27T17:56:54.820Z,0
2019-02-27T18:00:22.821Z,0
2019-02-27T18:03:50.750Z,0
2019-02-27T18:07:19.681Z,0
2019-02-27T18:10:47.596Z,0
2019-02-27T18:14:15.516Z,0
2019-02-27T18:17:44.059Z,0
2019-02-27T18:21:12.002Z,0
2019-02-27T18:24:39.982Z,0
2019-02-27T18:28:07.930Z,0
2019-02-27T18:31:35.859Z,0
2019-02-27T18:35:03.821Z,0
2019-02-27T18:38:32.710Z,0
2019-02-27T18:42:00.689Z,0
2019-02-27T18:45:28.634Z,0
2019-02-27T18:48:57.531Z,0
2019-02-27T18:52:25.491Z,0
2019-02-27T18:55:53.423Z,0
2019-02-27T18:59:21.317Z,0
2019-02-27T19:02:51.924Z,0
2019-02-27T19:06:19.283Z,0
2019-02-27T19:09:48.209Z,0
2019-02-27T19:13:16.861Z,0
2019-02-27T19:16:44.824Z,0
2019-02-27T19:20:12.785Z,0
2019-02-27T19:23:42.689Z,0
2019-02-27T19:27:10.621Z,0
2019-02-27T19:30:43.189Z,0
2019-02-27T19:34:13.149Z,0
2019-02-27T19:37:42.081Z,0
2019-02-27T19:41:10.006Z,0
2019-02-27T19:44:37.957Z,0
2019-02-27T19:48:05.893Z,0
2019-02-27T19:51:34.811Z,0
2019-02-27T19:55:02.733Z,0
2019-02-27T19:58:30.672Z,0
2019-02-27T20:01:58.596Z,0
2019-02-27T20:05:26.527Z,0
2019-02-27T20:08:54.457Z,0
2019-02-27T20:12:22.436Z,0
2019-02-27T20:15:51.522Z,0
2019-02-27T20:19:28.214Z,0
2019-02-27T20:22:56.611Z,0
2019-02-27T20:26:26.549Z,0
2019-02-27T20:29:54.561Z,0
2019-02-27T20:33:23.569Z,0
2019-02-27T20:36:53.591Z,0
2019-02-27T20:40:22.580Z,0
2019-02-27T20:43:50.785Z,0
2019-02-27T20:47:21.804Z,0
2019-02-27T20:50:48.613Z,0
2019-02-27T20:54:16.543Z,0
2019-02-27T20:57:45.843Z,0
2019-02-27T21:01:15.856Z,0
2019-02-27T21:04:43.998Z,0
2019-02-27T21:08:11.998Z,0
2019-02-27T21:11:40.834Z,0
2019-02-27T21:15:08.760Z,0
2019-02-27T21:18:38.693Z,0
2019-02-27T21:22:06.646Z,0
2019-02-27T21:25:36.536Z,0
2019-02-27T21:29:08.601Z,0
2019-02-27T21:32:38.450Z,0
2019-02-27T21:36:07.564Z,0
2019-02-27T21:39:35.588Z,0
2019-02-27T21:43:03.558Z,0
2019-02-27T21:46:32.237Z,0
2019-02-27T21:50:03.585Z,0
2019-02-27T21:53:33.131Z,0
2019-02-27T21:57:01.103Z,0
2019-02-27T22:00:29.027Z,0
2019-02-27T22:03:56.981Z,0
2019-02-27T22:07:24.992Z,0
2019-02-27T22:10:55.909Z,0
2019-02-27T22:14:23.896Z,0
2019-02-27T22:17:51.859Z,0
2019-02-27T22:21:20.705Z,0
2019-02-27T22:24:49.320Z,0
2019-02-27T22:28:22.265Z,0
2019-02-27T22:31:50.167Z,0
2019-02-27T22:35:18.194Z,0
2019-02-27T22:38:47.217Z,0
2019-02-27T22:42:17.097Z,0
2019-02-27T22:45:48.021Z,0
2019-02-27T22:49:15.970Z,0
2019-02-27T22:52:43.890Z,0
2019-02-27T22:56:15.695Z,0
2019-02-27T22:59:42.764Z,0
